createdAt,value
2023-01-26T00:01:14.295Z,47.60
2023-01-26T00:03:45.942Z,46.70
2023-01-26T00:06:19.257Z,44.20
2023-01-26T00:08:55.170Z,46.43
2023-01-26T00:11:27.862Z,44.90
2023-01-26T00:14:00.539Z,45.37
2023-01-26T00:16:31.835Z,52.27
2023-01-26T00:19:03.489Z,42.97
2023-01-26T00:21:34.951Z,49.40
2023-01-26T00:24:06.883Z,45.90
2023-01-26T00:26:38.226Z,47.57
2023-01-26T00:29:09.535Z,48.60
2023-01-26T00:31:40.908Z,46.13
2023-01-26T00:34:12.453Z,47.83
2023-01-26T00:36:43.777Z,48.10
2023-01-26T00:39:15.019Z,50.37
2023-01-26T00:42:04.963Z,43.60
2023-01-26T00:44:38.478Z,49.17
2023-01-26T00:47:11.855Z,44.77
2023-01-26T00:49:43.907Z,41.17
2023-01-26T00:52:15.185Z,43.40
2023-01-26T00:54:46.472Z,45.10
2023-01-26T00:57:17.738Z,49.53
2023-01-26T00:59:48.993Z,47.77
2023-01-26T01:02:20.569Z,55.27
2023-01-26T01:04:52.935Z,53.63
2023-01-26T01:07:24.370Z,47.83
2023-01-26T01:09:55.624Z,49.03
2023-01-26T01:12:27.362Z,54.17
2023-01-26T01:14:58.610Z,54.93
2023-01-26T01:17:29.888Z,55.83
2023-01-26T01:20:01.189Z,54.47
2023-01-26T01:22:33.727Z,58.10
2023-01-26T01:25:05.796Z,50.23
2023-01-26T01:27:37.107Z,48.13
2023-01-26T01:30:09.445Z,51.33
2023-01-26T01:32:40.949Z,48.70
2023-01-26T01:35:12.229Z,54.10
2023-01-26T01:37:43.502Z,56.13
2023-01-26T01:40:15.003Z,52.03
2023-01-26T01:42:48.511Z,60.87
2023-01-26T01:45:25.607Z,52.27
2023-01-26T01:48:01.131Z,51.50
2023-01-26T01:50:38.472Z,58.05
2023-01-26T01:53:16.771Z,56.17
2023-01-26T01:55:48.259Z,53.60
2023-01-26T01:58:19.997Z,51.53
2023-01-26T02:00:51.306Z,51.70
2023-01-26T02:03:22.913Z,55.27
2023-01-26T02:05:59.485Z,60.67
2023-01-26T02:08:34.251Z,59.60
2023-01-26T02:11:12.779Z,57.30
2023-01-26T02:13:47.183Z,58.17
2023-01-26T02:16:19.660Z,52.03
2023-01-26T02:18:51.209Z,60.70
2023-01-26T02:21:23.728Z,56.23
2023-01-26T02:24:17.145Z,54.83
2023-01-26T02:26:48.466Z,61.00
2023-01-26T02:29:20.992Z,55.07
2023-01-26T02:31:53.597Z,52.07
2023-01-26T02:34:28.721Z,56.87
2023-01-26T02:37:01.206Z,54.90
2023-01-26T02:39:48.904Z,47.43
2023-01-26T02:42:38.629Z,48.77
2023-01-26T02:45:14.065Z,43.80
2023-01-26T02:47:45.413Z,51.15
2023-01-26T02:50:16.993Z,46.70
2023-01-26T02:52:48.296Z,56.23
2023-01-26T02:55:22.229Z,47.67
2023-01-26T02:57:59.279Z,46.70
2023-01-26T03:00:37.455Z,43.63
2023-01-26T03:03:14.941Z,44.73
2023-01-26T03:05:46.378Z,46.23
2023-01-26T03:08:18.002Z,47.57
2023-01-26T03:10:49.283Z,50.10
2023-01-26T03:13:20.703Z,50.37
2023-01-26T03:15:54.782Z,42.23
2023-01-26T03:18:44.669Z,52.23
2023-01-26T03:21:35.381Z,51.87
2023-01-26T03:24:30.646Z,45.47
2023-01-26T03:27:20.571Z,49.67
2023-01-26T03:29:51.958Z,49.63
2023-01-26T03:32:24.421Z,42.67
2023-01-26T03:34:55.755Z,50.20
2023-01-26T03:37:27.020Z,46.80
2023-01-26T03:40:17.158Z,46.40
2023-01-26T03:43:06.908Z,46.70
2023-01-26T03:45:57.081Z,49.53
2023-01-26T03:48:47.108Z,46.13
2023-01-26T03:51:37.114Z,46.27
2023-01-26T03:54:27.247Z,43.53
2023-01-26T03:56:58.517Z,43.53
2023-01-26T03:59:39.084Z,49.13
2023-01-26T04:02:30.888Z,46.03
2023-01-26T04:05:20.675Z,45.17
2023-01-26T04:08:10.530Z,47.20
2023-01-26T04:10:41.794Z,42.50
2023-01-26T04:13:31.785Z,45.30
2023-01-26T04:16:22.647Z,43.47
2023-01-26T04:19:13.621Z,44.17
2023-01-26T04:21:44.869Z,46.30
2023-01-26T04:24:17.323Z,38.10
2023-01-26T04:26:48.722Z,44.83
2023-01-26T04:29:20.003Z,41.57
2023-01-26T04:31:51.321Z,38.57
2023-01-26T04:34:22.729Z,40.90
2023-01-26T04:36:54.110Z,43.73
2023-01-26T04:39:25.484Z,41.33
2023-01-26T04:41:57.297Z,37.40
2023-01-26T04:44:28.664Z,38.63
2023-01-26T04:46:59.949Z,42.17
2023-01-26T04:49:31.220Z,45.73
2023-01-26T04:52:02.621Z,43.33
2023-01-26T04:54:33.909Z,40.17
2023-01-26T04:57:05.213Z,44.80
2023-01-26T04:59:36.912Z,44.87
2023-01-26T05:02:09.499Z,37.87
2023-01-26T05:04:40.822Z,44.37
2023-01-26T05:07:12.266Z,37.40
2023-01-26T05:09:43.505Z,41.97
2023-01-26T05:12:33.496Z,42.70
2023-01-26T05:15:05.063Z,40.90
2023-01-26T05:17:36.322Z,40.47
2023-01-26T05:20:08.349Z,38.33
2023-01-26T05:22:40.291Z,35.27
2023-01-26T05:25:11.563Z,34.27
2023-01-26T05:27:42.816Z,43.33
2023-01-26T05:30:15.040Z,38.87
2023-01-26T05:32:46.616Z,47.83
2023-01-26T05:35:18.066Z,37.50
2023-01-26T05:37:49.327Z,36.07
2023-01-26T05:40:21.825Z,39.27
2023-01-26T05:42:54.065Z,36.33
2023-01-26T05:45:25.458Z,41.30
2023-01-26T05:47:56.784Z,35.90
2023-01-26T05:50:28.587Z,42.27
2023-01-26T05:53:00.592Z,38.93
2023-01-26T05:55:32.248Z,35.53
2023-01-26T05:58:03.532Z,39.37
2023-01-26T06:00:34.795Z,40.23
2023-01-26T06:03:06.063Z,36.13
2023-01-26T06:05:38.713Z,30.43
2023-01-26T06:08:09.986Z,38.80
2023-01-26T06:10:41.255Z,34.23
2023-01-26T06:13:12.585Z,35.30
2023-01-26T06:15:43.840Z,40.53
2023-01-26T06:18:15.105Z,36.43
2023-01-26T06:20:46.379Z,35.70
2023-01-26T06:23:17.647Z,33.33
2023-01-26T06:25:48.891Z,38.43
2023-01-26T06:28:20.143Z,39.60
2023-01-26T06:30:51.486Z,37.67
2023-01-26T06:33:23.213Z,43.10
2023-01-26T06:35:55.321Z,41.77
2023-01-26T06:38:26.568Z,38.10
2023-01-26T06:41:02.866Z,36.27
2023-01-26T06:43:35.564Z,28.88
2023-01-26T06:46:07.043Z,34.67
2023-01-26T06:48:38.989Z,28.60
2023-01-26T06:51:16.383Z,40.07
2023-01-26T06:53:58.246Z,40.43
2023-01-26T06:56:29.533Z,33.20
2023-01-26T06:59:00.799Z,36.93
2023-01-26T07:01:39.394Z,31.33
2023-01-26T07:04:11.047Z,30.30
2023-01-26T07:06:43.562Z,39.90
2023-01-26T07:09:14.834Z,34.17
2023-01-26T07:11:46.078Z,39.87
2023-01-26T07:14:17.394Z,34.97
2023-01-26T07:16:48.711Z,35.00
2023-01-26T07:19:20.026Z,38.30
2023-01-26T07:21:51.350Z,42.00
2023-01-26T07:24:22.934Z,36.60
2023-01-26T07:26:54.547Z,31.17
2023-01-26T07:29:25.838Z,33.77
2023-01-26T07:31:57.189Z,43.77
2023-01-26T07:34:28.505Z,39.43
2023-01-26T07:36:59.767Z,35.03
2023-01-26T07:39:31.543Z,34.07
2023-01-26T07:42:02.984Z,33.13
2023-01-26T07:44:34.238Z,29.07
2023-01-26T07:47:05.883Z,36.77
2023-01-26T07:49:37.160Z,30.93
2023-01-26T07:52:09.137Z,38.40
2023-01-26T07:54:40.420Z,32.40
2023-01-26T07:57:12.403Z,39.43
2023-01-26T07:59:44.707Z,31.63
2023-01-26T08:02:16.012Z,34.17
2023-01-26T08:04:47.352Z,33.03
2023-01-26T08:07:18.589Z,37.47
2023-01-26T08:09:49.836Z,31.97
2023-01-26T08:12:21.105Z,33.83
2023-01-26T08:14:52.540Z,36.00
2023-01-26T08:17:23.782Z,33.20
2023-01-26T08:19:55.055Z,37.90
2023-01-26T08:22:26.329Z,29.57
2023-01-26T08:24:57.596Z,34.27
2023-01-26T08:27:28.844Z,34.83
2023-01-26T08:30:00.171Z,31.97
2023-01-26T08:32:31.627Z,30.57
2023-01-26T08:35:03.251Z,32.40
2023-01-26T08:37:34.533Z,33.50
2023-01-26T08:40:06.511Z,34.43
2023-01-26T08:42:37.780Z,33.10
2023-01-26T08:45:09.741Z,35.17
2023-01-26T08:47:40.990Z,32.60
2023-01-26T08:50:12.556Z,38.53
2023-01-26T08:52:44.376Z,37.40
2023-01-26T08:55:15.682Z,37.50
2023-01-26T08:57:51.486Z,32.53
2023-01-26T09:00:23.707Z,28.00
2023-01-26T09:03:02.438Z,29.57
2023-01-26T09:05:36.505Z,34.97
2023-01-26T09:08:09.155Z,32.23
2023-01-26T09:10:40.425Z,27.63
2023-01-26T09:13:11.715Z,32.13
2023-01-26T09:15:43.050Z,29.07
2023-01-26T09:18:14.345Z,26.53
2023-01-26T09:20:45.651Z,26.43
2023-01-26T09:23:18.148Z,27.73
2023-01-26T09:25:53.237Z,26.50
2023-01-26T09:28:24.584Z,28.40
2023-01-26T09:30:55.983Z,26.27
2023-01-26T09:33:27.330Z,27.47
2023-01-26T09:36:10.449Z,22.30
2023-01-26T09:38:42.013Z,24.60
2023-01-26T09:41:28.253Z,22.63
2023-01-26T09:44:10.143Z,23.63
2023-01-26T09:47:08.873Z,24.37
2023-01-26T09:49:54.456Z,27.20
2023-01-26T09:52:37.912Z,20.60
2023-01-26T09:55:17.140Z,22.60
2023-01-26T09:57:58.189Z,23.63
2023-01-26T10:00:38.870Z,23.43
2023-01-26T10:03:25.339Z,25.27
2023-01-26T10:06:21.797Z,19.83
2023-01-26T10:08:55.095Z,20.98
2023-01-26T10:11:38.164Z,22.53
2023-01-26T10:14:33.798Z,27.57
2023-01-26T10:17:07.088Z,21.37
2023-01-26T10:19:55.009Z,25.07
2023-01-26T10:22:44.605Z,21.23
2023-01-26T10:25:25.523Z,22.87
2023-01-26T10:27:56.906Z,21.70
2023-01-26T10:30:28.230Z,24.33
2023-01-26T10:33:00.432Z,21.77
2023-01-26T10:35:31.780Z,20.33
2023-01-26T10:38:03.205Z,20.67
2023-01-26T10:40:44.439Z,20.60
2023-01-26T10:43:18.984Z,20.70
2023-01-26T10:45:50.326Z,22.90
2023-01-26T10:48:26.657Z,20.30
2023-01-26T10:51:15.348Z,20.20
2023-01-26T10:53:46.602Z,19.63
2023-01-26T10:56:18.388Z,19.57
2023-01-26T10:58:54.757Z,20.17
2023-01-26T11:04:06.737Z,19.80
2023-01-26T11:06:38.585Z,16.87
2023-01-26T11:09:16.826Z,19.00
2023-01-26T11:11:56.461Z,19.50
2023-01-26T11:14:29.486Z,22.50
2023-01-26T11:17:24.358Z,22.83
2023-01-26T11:20:14.516Z,20.00
2023-01-26T11:23:02.303Z,18.10
2023-01-26T11:26:09.277Z,18.33
2023-01-26T11:28:55.408Z,21.77
2023-01-26T11:32:19.972Z,30.65
2023-01-26T11:35:10.362Z,27.80
2023-01-26T11:37:55.393Z,25.77
2023-01-26T11:40:55.270Z,26.03
2023-01-26T11:43:58.230Z,27.80
2023-01-26T11:46:41.640Z,41.63
2023-01-26T11:49:44.092Z,57.17
2023-01-26T11:52:36.802Z,40.17
2023-01-26T11:55:17.555Z,29.60
2023-01-26T11:58:02.955Z,52.43
2023-01-26T12:00:42.793Z,34.87
2023-01-26T12:03:27.040Z,54.23
2023-01-26T12:06:04.024Z,34.77
2023-01-26T12:08:41.630Z,87.37
2023-01-26T12:11:22.870Z,61.10
2023-01-26T12:14:08.142Z,46.73
2023-01-26T12:17:11.419Z,35.10
2023-01-26T12:20:05.888Z,51.50
2023-01-26T12:22:40.295Z,61.37
2023-01-26T12:25:26.907Z,37.50
2023-01-26T12:28:22.289Z,56.92
2023-01-26T12:31:31.009Z,95.80
2023-01-26T12:34:02.419Z,58.17
2023-01-26T12:36:42.592Z,72.73
2023-01-26T12:39:21.230Z,68.70
2023-01-26T12:42:03.258Z,52.83
2023-01-26T12:44:54.945Z,75.10
2023-01-26T12:47:38.411Z,56.13
2023-01-26T12:50:24.805Z,76.13
2023-01-26T12:53:07.741Z,54.45
2023-01-26T12:56:09.262Z,84.53
2023-01-26T12:58:44.269Z,101.20
2023-01-26T13:01:19.053Z,64.53
2023-01-26T13:04:06.493Z,65.40
2023-01-26T13:06:37.842Z,71.87
2023-01-26T13:09:24.987Z,54.73
2023-01-26T13:12:00.118Z,55.80
2023-01-26T13:14:43.435Z,58.73
2023-01-26T13:17:14.661Z,55.87
2023-01-26T13:19:45.882Z,56.00
2023-01-26T13:22:26.289Z,61.23
2023-01-26T13:24:58.571Z,48.27
2023-01-26T13:27:38.816Z,54.63
2023-01-26T13:30:22.037Z,60.27
2023-01-26T13:33:04.176Z,52.57
2023-01-26T13:35:36.278Z,43.07
2023-01-26T13:38:19.299Z,45.47
2023-01-26T13:40:50.736Z,47.23
2023-01-26T13:43:35.346Z,33.20
2023-01-26T13:46:25.688Z,35.47
2023-01-26T13:48:57.430Z,61.20
2023-01-26T13:51:31.410Z,64.50
2023-01-26T13:54:05.637Z,57.53
2023-01-26T13:56:39.345Z,46.37
2023-01-26T13:59:16.682Z,49.73
2023-01-26T14:01:50.834Z,44.97
2023-01-26T14:04:30.872Z,43.37
2023-01-26T14:07:15.501Z,42.33
2023-01-26T14:09:50.343Z,72.90
2023-01-26T14:12:27.815Z,71.17
2023-01-26T14:15:03.062Z,50.07
2023-01-26T14:17:36.795Z,40.53
2023-01-26T14:20:24.477Z,40.00
2023-01-26T14:23:22.199Z,31.53
2023-01-26T14:26:04.490Z,39.93
2023-01-26T14:28:40.700Z,35.07
2023-01-26T14:31:26.522Z,34.45
2023-01-26T14:33:59.582Z,33.27
2023-01-26T14:36:39.005Z,47.17
2023-01-26T14:39:19.698Z,37.40
2023-01-26T14:41:51.239Z,36.97
2023-01-26T14:44:22.564Z,46.70
2023-01-26T14:47:04.394Z,34.10
2023-01-26T14:49:45.571Z,40.80
2023-01-26T14:52:21.036Z,43.83
2023-01-26T14:55:03.960Z,39.53
2023-01-26T14:57:35.259Z,39.97
2023-01-26T15:00:10.975Z,42.13
2023-01-26T15:02:46.309Z,38.33
2023-01-26T15:05:20.673Z,39.50
2023-01-26T15:07:57.569Z,36.83
2023-01-26T15:10:34.589Z,40.27
2023-01-26T15:13:19.061Z,37.30
2023-01-26T15:16:05.428Z,40.83
2023-01-26T15:18:36.905Z,31.10
2023-01-26T15:21:11.323Z,23.47
2023-01-26T15:23:45.221Z,28.50
2023-01-26T15:26:27.372Z,35.77
2023-01-26T15:29:01.043Z,27.47
2023-01-26T15:31:37.923Z,29.40
2023-01-26T15:34:33.702Z,23.37
2023-01-26T15:37:33.620Z,29.33
2023-01-26T15:40:05.418Z,23.23
2023-01-26T15:42:36.814Z,22.13
2023-01-26T15:45:27.002Z,23.30
2023-01-26T15:47:58.329Z,24.20
2023-01-26T15:50:29.597Z,28.03
2023-01-26T15:53:00.950Z,29.13
2023-01-26T15:55:33.603Z,26.93
2023-01-26T15:58:04.922Z,27.37
2023-01-26T16:00:37.084Z,28.67
2023-01-26T16:03:14.903Z,22.53
2023-01-26T16:05:50.267Z,28.43
2023-01-26T16:08:21.559Z,19.13
2023-01-26T16:10:54.344Z,17.27
2023-01-26T16:13:25.671Z,17.43
2023-01-26T16:15:56.967Z,20.33
2023-01-26T16:18:28.226Z,18.97
2023-01-26T16:20:59.479Z,16.50
2023-01-26T16:23:31.786Z,12.23
2023-01-26T16:26:03.161Z,17.27
2023-01-26T16:28:34.502Z,20.30
2023-01-26T16:31:14.195Z,21.80
2023-01-26T16:33:46.912Z,26.77
2023-01-26T16:36:19.762Z,21.37
2023-01-26T16:38:51.083Z,20.47
2023-01-26T16:41:30.845Z,21.70
2023-01-26T16:44:03.531Z,28.47
2023-01-26T16:46:34.764Z,26.07
2023-01-26T16:49:06.065Z,28.60
2023-01-26T16:51:39.093Z,27.60
2023-01-26T16:54:11.607Z,29.77
2023-01-26T16:56:42.870Z,32.43
2023-01-26T16:59:14.131Z,30.13
2023-01-26T17:01:45.583Z,29.47
2023-01-26T17:04:16.865Z,27.30
2023-01-26T17:06:48.517Z,24.47
2023-01-26T17:09:21.053Z,24.30
2023-01-26T17:11:52.313Z,28.57
2023-01-26T17:14:24.308Z,25.17
2023-01-26T17:16:55.620Z,22.20
2023-01-26T17:19:27.058Z,32.20
2023-01-26T17:21:58.340Z,37.50
2023-01-26T17:24:29.654Z,31.77
2023-01-26T17:27:01.273Z,25.93
2023-01-26T17:29:33.661Z,32.47
2023-01-26T17:32:05.692Z,26.67
2023-01-26T17:34:36.957Z,25.23
2023-01-26T17:37:08.399Z,29.20
2023-01-26T17:39:39.662Z,34.20
2023-01-26T17:42:11.331Z,26.73
2023-01-26T17:44:42.590Z,24.77
2023-01-26T17:47:14.044Z,27.63
2023-01-26T17:49:45.348Z,29.53
2023-01-26T17:52:16.762Z,30.27
2023-01-26T17:54:48.018Z,32.53
2023-01-26T17:57:19.509Z,32.20
2023-01-26T17:59:50.785Z,34.50
2023-01-26T18:02:22.085Z,30.27
2023-01-26T18:04:53.461Z,28.63
2023-01-26T18:07:25.043Z,26.07
2023-01-26T18:09:56.402Z,30.57
2023-01-26T18:12:27.669Z,30.83
2023-01-26T18:14:58.931Z,23.50
2023-01-26T18:17:30.305Z,30.17
2023-01-26T18:20:01.586Z,29.93
2023-01-26T18:22:33.141Z,25.30
2023-01-26T18:25:04.840Z,24.67
2023-01-26T18:27:36.153Z,30.63
2023-01-26T18:30:09.341Z,26.47
2023-01-26T18:32:40.609Z,17.77
2023-01-26T18:35:12.158Z,18.97
2023-01-26T18:37:43.612Z,20.70
2023-01-26T18:40:15.218Z,19.07
2023-01-26T18:42:47.082Z,17.67
2023-01-26T18:45:18.450Z,15.60
2023-01-26T18:47:50.222Z,16.40
2023-01-26T18:50:21.654Z,17.37
2023-01-26T18:52:53.175Z,16.20
2023-01-26T18:55:24.537Z,17.93
2023-01-26T18:57:55.801Z,17.93
2023-01-26T19:00:27.213Z,18.77
2023-01-26T19:02:58.529Z,16.70
2023-01-26T19:05:30.841Z,17.60
2023-01-26T19:08:10.115Z,22.03
2023-01-26T19:10:41.753Z,21.40
2023-01-26T19:13:13.235Z,18.33
2023-01-26T19:15:48.973Z,22.30
2023-01-26T19:18:20.434Z,23.30
2023-01-26T19:20:56.663Z,33.67
2023-01-26T19:23:28.439Z,24.52
2023-01-26T19:26:00.160Z,28.67
2023-01-26T19:28:31.446Z,25.80
2023-01-26T19:31:03.660Z,27.63
2023-01-26T19:33:35.767Z,22.50
2023-01-26T19:36:07.751Z,19.67
2023-01-26T19:38:39.692Z,22.10
2023-01-26T19:41:11.198Z,22.97
2023-01-26T19:43:44.212Z,21.13
2023-01-26T19:46:17.182Z,22.50
2023-01-26T19:48:48.859Z,22.80
2023-01-26T19:51:25.557Z,23.30
2023-01-26T19:53:58.700Z,22.47
2023-01-26T19:56:32.920Z,24.73
2023-01-26T19:59:06.917Z,27.60
2023-01-26T20:01:38.572Z,21.33
2023-01-26T20:04:13.653Z,24.80
2023-01-26T20:06:48.575Z,23.37
2023-01-26T20:09:20.048Z,19.23
2023-01-26T20:11:52.506Z,19.20
2023-01-26T20:14:23.829Z,17.03
2023-01-26T20:16:55.138Z,21.27
2023-01-26T20:19:27.769Z,17.97
2023-01-26T20:22:01.190Z,14.83
2023-01-26T20:24:32.530Z,24.30
2023-01-26T20:27:03.936Z,22.97
2023-01-26T20:29:36.690Z,22.67
2023-01-26T20:32:07.983Z,22.70
2023-01-26T20:34:40.998Z,20.37
2023-01-26T20:37:12.556Z,27.47
2023-01-26T20:39:46.914Z,18.37
2023-01-26T20:42:18.808Z,25.03
2023-01-26T20:44:50.764Z,24.03
2023-01-26T20:47:22.437Z,25.30
2023-01-26T20:49:56.012Z,21.40
2023-01-26T20:52:27.377Z,24.13
2023-01-26T20:54:59.164Z,26.17
2023-01-26T20:57:32.163Z,24.50
2023-01-26T21:00:05.197Z,26.13
2023-01-26T21:02:36.459Z,23.47
2023-01-26T21:05:08.428Z,20.77
2023-01-26T21:07:39.688Z,20.03
2023-01-26T21:10:11.391Z,15.70
2023-01-26T21:12:42.913Z,19.50
2023-01-26T21:15:14.246Z,19.40
2023-01-26T21:17:45.489Z,23.23
2023-01-26T21:20:16.846Z,19.97
2023-01-26T21:22:48.109Z,15.57
2023-01-26T21:25:19.395Z,16.10
2023-01-26T21:27:52.188Z,19.10
2023-01-26T21:30:23.759Z,16.67
2023-01-26T21:32:55.001Z,13.73
2023-01-26T21:35:26.278Z,20.50
2023-01-26T21:37:58.944Z,13.20
2023-01-26T21:40:30.227Z,19.77
2023-01-26T21:43:01.479Z,17.63
2023-01-26T21:45:52.785Z,18.13
2023-01-26T21:48:27.994Z,18.17
2023-01-26T21:51:19.397Z,14.30
2023-01-26T21:53:50.707Z,16.03
2023-01-26T21:56:21.962Z,17.07
2023-01-26T21:59:14.389Z,11.47
2023-01-26T22:01:48.720Z,13.23
2023-01-26T22:04:26.034Z,13.67
2023-01-26T22:06:57.809Z,14.37
2023-01-26T22:09:29.911Z,9.93
2023-01-26T22:12:01.271Z,13.93
2023-01-26T22:14:32.678Z,10.30
2023-01-26T22:17:03.977Z,10.83
2023-01-26T22:19:35.336Z,10.00
2023-01-26T22:22:08.740Z,6.77
2023-01-26T22:24:40.017Z,7.00
2023-01-26T22:27:11.301Z,7.87
2023-01-26T22:29:42.579Z,8.53
2023-01-26T22:32:13.922Z,6.60
2023-01-26T22:34:45.394Z,5.73
2023-01-26T22:37:17.359Z,6.37
2023-01-26T22:39:49.001Z,8.40
2023-01-26T22:42:21.729Z,8.83
2023-01-26T22:44:52.984Z,5.53
2023-01-26T22:47:24.255Z,8.27
2023-01-26T22:49:55.519Z,8.30
2023-01-26T22:52:26.866Z,6.17
2023-01-26T22:54:58.161Z,8.67
2023-01-26T22:57:29.436Z,7.17
2023-01-26T23:00:00.725Z,8.23
2023-01-26T23:02:32.013Z,7.30
2023-01-26T23:05:03.408Z,6.63
2023-01-26T23:07:34.709Z,8.63
2023-01-26T23:10:06.747Z,6.50
2023-01-26T23:12:38.013Z,10.23
2023-01-26T23:15:09.850Z,8.73
2023-01-26T23:17:41.114Z,6.97
2023-01-26T23:20:12.940Z,8.73
2023-01-26T23:22:44.616Z,7.90
2023-01-26T23:25:34.701Z,6.60
2023-01-26T23:28:06.005Z,7.03
2023-01-26T23:30:37.373Z,8.73
2023-01-26T23:33:08.661Z,8.60
2023-01-26T23:35:39.914Z,7.03
2023-01-26T23:38:11.644Z,9.93
2023-01-26T23:40:44.322Z,5.60
2023-01-26T23:43:17.443Z,7.77
2023-01-26T23:45:50.098Z,6.83
2023-01-26T23:48:21.444Z,6.60
2023-01-26T23:50:57.372Z,7.13
2023-01-26T23:53:30.541Z,7.55
2023-01-26T23:56:07.260Z,7.70
2023-01-26T23:58:38.590Z,4.93
